sensor_id;sensor_type;location;lat;lon;timestamp;temperature;humidity
48666;DHT22;34452;50.796;4.994;2023-05-27T00:01:28;11.40;99.90
48666;DHT22;34452;50.796;4.994;2023-05-27T00:03:54;11.40;99.90
48666;DHT22;34452;50.796;4.994;2023-05-27T00:06:19;11.30;99.90
48666;DHT22;34452;50.796;4.994;2023-05-27T00:08:45;11.30;99.90
48666;DHT22;34452;50.796;4.994;2023-05-27T00:11:11;11.30;99.90
48666;DHT22;34452;50.796;4.994;2023-05-27T00:13:36;11.40;99.90
48666;DHT22;34452;50.796;4.994;2023-05-27T00:16:03;11.30;99.90
48666;DHT22;34452;50.796;4.994;2023-05-27T00:18:29;11.20;99.90
48666;DHT22;34452;50.796;4.994;2023-05-27T00:20:58;11.20;99.90
48666;DHT22;34452;50.796;4.994;2023-05-27T00:23:24;11.20;99.90
48666;DHT22;34452;50.796;4.994;2023-05-27T00:25:50;11.10;99.90
48666;DHT22;34452;50.796;4.994;2023-05-27T00:28:16;11.10;99.90
48666;DHT22;34452;50.796;4.994;2023-05-27T00:30:41;11.00;99.90
48666;DHT22;34452;50.796;4.994;2023-05-27T00:33:07;11.00;99.90
48666;DHT22;34452;50.796;4.994;2023-05-27T00:35:33;11.00;99.90
48666;DHT22;34452;50.796;4.994;2023-05-27T00:37:58;11.00;99.90
48666;DHT22;34452;50.796;4.994;2023-05-27T00:40:26;10.90;99.90
48666;DHT22;34452;50.796;4.994;2023-05-27T00:42:54;10.90;99.90
48666;DHT22;34452;50.796;4.994;2023-05-27T00:45:21;10.90;99.90
48666;DHT22;34452;50.796;4.994;2023-05-27T00:47:47;10.80;99.90
48666;DHT22;34452;50.796;4.994;2023-05-27T00:50:13;10.80;99.90
48666;DHT22;34452;50.796;4.994;2023-05-27T00:52:39;10.80;99.90
48666;DHT22;34452;50.796;4.994;2023-05-27T00:55:06;10.80;99.90
48666;DHT22;34452;50.796;4.994;2023-05-27T00:57:32;10.70;99.90
48666;DHT22;34452;50.796;4.994;2023-05-27T00:59:58;10.70;99.90
48666;DHT22;34452;50.796;4.994;2023-05-27T01:02:24;10.70;99.90
48666;DHT22;34452;50.796;4.994;2023-05-27T01:04:51;10.60;99.90
48666;DHT22;34452;50.796;4.994;2023-05-27T01:13:00;10.60;99.90
48666;DHT22;34452;50.796;4.994;2023-05-27T01:15:27;10.50;99.90
48666;DHT22;34452;50.796;4.994;2023-05-27T01:17:56;10.40;99.90
48666;DHT22;34452;50.796;4.994;2023-05-27T01:20:22;10.30;99.90
48666;DHT22;34452;50.796;4.994;2023-05-27T01:22:48;10.40;99.90
48666;DHT22;34452;50.796;4.994;2023-05-27T01:25:17;10.40;99.90
48666;DHT22;34452;50.796;4.994;2023-05-27T01:27:45;10.30;99.90
48666;DHT22;34452;50.796;4.994;2023-05-27T01:30:11;10.30;99.90
48666;DHT22;34452;50.796;4.994;2023-05-27T01:32:58;10.30;99.90
48666;DHT22;34452;50.796;4.994;2023-05-27T01:35:29;10.20;99.90
48666;DHT22;34452;50.796;4.994;2023-05-27T01:37:59;10.30;99.90
48666;DHT22;34452;50.796;4.994;2023-05-27T01:40:27;10.20;99.90
48666;DHT22;34452;50.796;4.994;2023-05-27T01:42:57;10.20;99.90
48666;DHT22;34452;50.796;4.994;2023-05-27T01:45:23;10.20;99.90
48666;DHT22;34452;50.796;4.994;2023-05-27T01:47:49;10.20;99.90
48666;DHT22;34452;50.796;4.994;2023-05-27T01:50:15;10.10;99.90
48666;DHT22;34452;50.796;4.994;2023-05-27T01:52:41;10.10;99.90
48666;DHT22;34452;50.796;4.994;2023-05-27T01:55:07;10.10;99.90
48666;DHT22;34452;50.796;4.994;2023-05-27T01:57:33;10.00;99.90
48666;DHT22;34452;50.796;4.994;2023-05-27T01:59:59;10.00;99.90
48666;DHT22;34452;50.796;4.994;2023-05-27T02:02:25;10.00;99.90
48666;DHT22;34452;50.796;4.994;2023-05-27T02:04:50;10.00;99.90
48666;DHT22;34452;50.796;4.994;2023-05-27T02:07:16;10.00;99.90
48666;DHT22;34452;50.796;4.994;2023-05-27T02:09:42;10.00;99.90
48666;DHT22;34452;50.796;4.994;2023-05-27T02:12:10;10.00;99.90
48666;DHT22;34452;50.796;4.994;2023-05-27T02:14:37;10.00;99.90
48666;DHT22;34452;50.796;4.994;2023-05-27T02:17:04;10.00;99.90
48666;DHT22;34452;50.796;4.994;2023-05-27T02:19:30;9.90;99.90
48666;DHT22;34452;50.796;4.994;2023-05-27T02:21:56;10.00;99.90
48666;DHT22;34452;50.796;4.994;2023-05-27T02:24:22;9.90;99.90
48666;DHT22;34452;50.796;4.994;2023-05-27T02:26:47;9.90;99.90
48666;DHT22;34452;50.796;4.994;2023-05-27T02:29:13;9.90;99.90
48666;DHT22;34452;50.796;4.994;2023-05-27T02:31:39;9.90;99.90
48666;DHT22;34452;50.796;4.994;2023-05-27T02:34:04;9.90;99.90
48666;DHT22;34452;50.796;4.994;2023-05-27T02:36:30;9.80;99.90
48666;DHT22;34452;50.796;4.994;2023-05-27T02:38:56;9.80;99.90
48666;DHT22;34452;50.796;4.994;2023-05-27T02:41:22;9.80;99.90
48666;DHT22;34452;50.796;4.994;2023-05-27T02:43:47;9.80;99.90
48666;DHT22;34452;50.796;4.994;2023-05-27T02:46:13;9.70;99.90
48666;DHT22;34452;50.796;4.994;2023-05-27T02:48:39;9.70;99.90
48666;DHT22;34452;50.796;4.994;2023-05-27T02:51:04;9.70;99.90
48666;DHT22;34452;50.796;4.994;2023-05-27T02:53:30;9.70;99.90
48666;DHT22;34452;50.796;4.994;2023-05-27T02:55:56;9.70;99.90
48666;DHT22;34452;50.796;4.994;2023-05-27T02:58:21;9.70;99.90
48666;DHT22;34452;50.796;4.994;2023-05-27T03:00:47;9.60;99.90
48666;DHT22;34452;50.796;4.994;2023-05-27T03:03:13;9.60;99.90
48666;DHT22;34452;50.796;4.994;2023-05-27T03:05:38;9.50;99.90
48666;DHT22;34452;50.796;4.994;2023-05-27T03:08:04;9.50;99.90
48666;DHT22;34452;50.796;4.994;2023-05-27T03:10:32;9.50;99.90
48666;DHT22;34452;50.796;4.994;2023-05-27T03:12:58;9.50;99.90
48666;DHT22;34452;50.796;4.994;2023-05-27T03:15:24;9.40;99.90
48666;DHT22;34452;50.796;4.994;2023-05-27T03:17:49;9.40;99.90
48666;DHT22;34452;50.796;4.994;2023-05-27T03:20:15;9.30;99.90
48666;DHT22;34452;50.796;4.994;2023-05-27T03:22:44;9.30;99.90
48666;DHT22;34452;50.796;4.994;2023-05-27T03:25:10;9.30;99.90
48666;DHT22;34452;50.796;4.994;2023-05-27T03:27:36;9.20;99.90
48666;DHT22;34452;50.796;4.994;2023-05-27T03:30:03;9.20;99.90
48666;DHT22;34452;50.796;4.994;2023-05-27T03:32:30;9.20;99.90
48666;DHT22;34452;50.796;4.994;2023-05-27T03:34:56;9.10;99.90
48666;DHT22;34452;50.796;4.994;2023-05-27T03:37:21;9.00;99.90
48666;DHT22;34452;50.796;4.994;2023-05-27T03:39:47;9.10;99.90
48666;DHT22;34452;50.796;4.994;2023-05-27T03:42:13;9.10;99.90
48666;DHT22;34452;50.796;4.994;2023-05-27T03:44:39;9.00;99.90
48666;DHT22;34452;50.796;4.994;2023-05-27T03:47:05;9.00;99.90
48666;DHT22;34452;50.796;4.994;2023-05-27T03:49:31;9.00;99.90
48666;DHT22;34452;50.796;4.994;2023-05-27T03:51:57;9.00;99.90
48666;DHT22;34452;50.796;4.994;2023-05-27T03:54:23;9.10;99.90
48666;DHT22;34452;50.796;4.994;2023-05-27T03:56:49;9.10;99.90
48666;DHT22;34452;50.796;4.994;2023-05-27T03:59:16;9.10;99.90
48666;DHT22;34452;50.796;4.994;2023-05-27T04:01:44;9.00;99.90
48666;DHT22;34452;50.796;4.994;2023-05-27T04:04:10;9.00;99.90
48666;DHT22;34452;50.796;4.994;2023-05-27T04:06:35;9.00;99.90
48666;DHT22;34452;50.796;4.994;2023-05-27T04:09:01;9.00;99.90
48666;DHT22;34452;50.796;4.994;2023-05-27T04:11:30;8.90;99.90
48666;DHT22;34452;50.796;4.994;2023-05-27T04:13:56;8.90;99.90
48666;DHT22;34452;50.796;4.994;2023-05-27T04:16:23;8.90;99.90
48666;DHT22;34452;50.796;4.994;2023-05-27T04:18:50;9.00;99.90
48666;DHT22;34452;50.796;4.994;2023-05-27T04:21:17;9.00;99.90
48666;DHT22;34452;50.796;4.994;2023-05-27T04:23:43;9.00;99.90
48666;DHT22;34452;50.796;4.994;2023-05-27T04:26:09;9.10;99.90
48666;DHT22;34452;50.796;4.994;2023-05-27T04:28:35;9.00;99.90
48666;DHT22;34452;50.796;4.994;2023-05-27T04:31:01;9.00;99.90
48666;DHT22;34452;50.796;4.994;2023-05-27T04:33:27;9.00;99.90
48666;DHT22;34452;50.796;4.994;2023-05-27T04:35:53;9.00;99.90
48666;DHT22;34452;50.796;4.994;2023-05-27T04:38:20;9.10;99.90
48666;DHT22;34452;50.796;4.994;2023-05-27T04:40:49;9.10;99.90
48666;DHT22;34452;50.796;4.994;2023-05-27T04:43:18;9.10;99.90
48666;DHT22;34452;50.796;4.994;2023-05-27T04:45:45;9.10;99.90
48666;DHT22;34452;50.796;4.994;2023-05-27T04:48:11;9.10;99.90
48666;DHT22;34452;50.796;4.994;2023-05-27T04:50:37;9.10;99.90
48666;DHT22;34452;50.796;4.994;2023-05-27T04:53:03;9.20;99.90
48666;DHT22;34452;50.796;4.994;2023-05-27T04:55:29;9.20;99.90
48666;DHT22;34452;50.796;4.994;2023-05-27T04:57:55;9.30;99.90
48666;DHT22;34452;50.796;4.994;2023-05-27T05:00:22;9.30;99.90
48666;DHT22;34452;50.796;4.994;2023-05-27T05:03:02;9.30;99.90
48666;DHT22;34452;50.796;4.994;2023-05-27T05:05:29;9.40;99.90
48666;DHT22;34452;50.796;4.994;2023-05-27T05:07:55;9.50;99.90
48666;DHT22;34452;50.796;4.994;2023-05-27T05:10:21;9.60;99.90
48666;DHT22;34452;50.796;4.994;2023-05-27T05:12:46;9.60;99.90
48666;DHT22;34452;50.796;4.994;2023-05-27T05:15:12;9.60;99.90
48666;DHT22;34452;50.796;4.994;2023-05-27T05:17:38;9.70;99.90
48666;DHT22;34452;50.796;4.994;2023-05-27T05:20:04;9.70;99.90
48666;DHT22;34452;50.796;4.994;2023-05-27T05:22:31;9.80;99.90
48666;DHT22;34452;50.796;4.994;2023-05-27T05:24:57;9.90;99.90
48666;DHT22;34452;50.796;4.994;2023-05-27T05:27:23;9.90;99.90
48666;DHT22;34452;50.796;4.994;2023-05-27T05:29:50;9.90;99.90
48666;DHT22;34452;50.796;4.994;2023-05-27T05:32:16;10.00;99.90
48666;DHT22;34452;50.796;4.994;2023-05-27T05:34:41;10.10;99.90
48666;DHT22;34452;50.796;4.994;2023-05-27T05:37:08;10.10;99.90
48666;DHT22;34452;50.796;4.994;2023-05-27T05:39:37;10.20;99.90
48666;DHT22;34452;50.796;4.994;2023-05-27T05:42:03;10.30;99.90
48666;DHT22;34452;50.796;4.994;2023-05-27T05:44:30;10.40;99.90
48666;DHT22;34452;50.796;4.994;2023-05-27T05:46:56;10.50;99.90
48666;DHT22;34452;50.796;4.994;2023-05-27T05:49:21;10.60;99.90
48666;DHT22;34452;50.796;4.994;2023-05-27T05:51:47;10.70;99.90
48666;DHT22;34452;50.796;4.994;2023-05-27T05:54:13;10.70;99.90
48666;DHT22;34452;50.796;4.994;2023-05-27T05:56:38;10.90;99.90
48666;DHT22;34452;50.796;4.994;2023-05-27T05:59:05;10.90;99.90
48666;DHT22;34452;50.796;4.994;2023-05-27T06:01:31;11.00;99.90
48666;DHT22;34452;50.796;4.994;2023-05-27T06:03:56;11.10;99.90
48666;DHT22;34452;50.796;4.994;2023-05-27T06:06:23;11.00;99.90
48666;DHT22;34452;50.796;4.994;2023-05-27T06:08:49;11.10;99.90
48666;DHT22;34452;50.796;4.994;2023-05-27T06:11:14;11.20;99.90
48666;DHT22;34452;50.796;4.994;2023-05-27T06:13:41;11.40;99.90
48666;DHT22;34452;50.796;4.994;2023-05-27T06:16:06;11.40;99.90
48666;DHT22;34452;50.796;4.994;2023-05-27T06:18:32;11.50;99.90
48666;DHT22;34452;50.796;4.994;2023-05-27T06:20:58;11.50;99.90
48666;DHT22;34452;50.796;4.994;2023-05-27T06:23:24;11.50;99.90
48666;DHT22;34452;50.796;4.994;2023-05-27T06:25:49;11.50;99.90
48666;DHT22;34452;50.796;4.994;2023-05-27T06:28:15;11.70;99.90
48666;DHT22;34452;50.796;4.994;2023-05-27T06:30:41;11.70;99.90
48666;DHT22;34452;50.796;4.994;2023-05-27T06:33:08;11.60;99.90
48666;DHT22;34452;50.796;4.994;2023-05-27T06:35:34;11.70;99.90
48666;DHT22;34452;50.796;4.994;2023-05-27T06:37:59;11.80;99.90
48666;DHT22;34452;50.796;4.994;2023-05-27T06:40:25;11.90;99.90
48666;DHT22;34452;50.796;4.994;2023-05-27T06:42:51;11.90;99.90
48666;DHT22;34452;50.796;4.994;2023-05-27T06:45:17;12.00;99.90
48666;DHT22;34452;50.796;4.994;2023-05-27T06:47:42;12.00;99.90
48666;DHT22;34452;50.796;4.994;2023-05-27T06:50:08;12.10;99.90
48666;DHT22;34452;50.796;4.994;2023-05-27T06:52:34;12.20;99.90
48666;DHT22;34452;50.796;4.994;2023-05-27T06:55:00;12.30;99.90
48666;DHT22;34452;50.796;4.994;2023-05-27T06:57:26;12.40;99.90
48666;DHT22;34452;50.796;4.994;2023-05-27T06:59:52;12.50;99.90
48666;DHT22;34452;50.796;4.994;2023-05-27T07:02:17;12.50;99.90
48666;DHT22;34452;50.796;4.994;2023-05-27T07:04:43;12.60;99.90
48666;DHT22;34452;50.796;4.994;2023-05-27T07:07:09;12.70;99.90
48666;DHT22;34452;50.796;4.994;2023-05-27T07:09:35;12.80;99.90
48666;DHT22;34452;50.796;4.994;2023-05-27T07:12:02;12.90;99.90
48666;DHT22;34452;50.796;4.994;2023-05-27T07:14:28;13.00;99.90
48666;DHT22;34452;50.796;4.994;2023-05-27T07:16:53;12.90;99.90
48666;DHT22;34452;50.796;4.994;2023-05-27T07:19:19;13.00;99.90
48666;DHT22;34452;50.796;4.994;2023-05-27T07:21:45;13.10;99.90
48666;DHT22;34452;50.796;4.994;2023-05-27T07:24:11;13.10;99.90
48666;DHT22;34452;50.796;4.994;2023-05-27T07:26:37;13.20;99.90
48666;DHT22;34452;50.796;4.994;2023-05-27T07:29:03;13.30;99.90
48666;DHT22;34452;50.796;4.994;2023-05-27T07:31:29;13.30;99.90
48666;DHT22;34452;50.796;4.994;2023-05-27T07:33:55;13.30;99.90
48666;DHT22;34452;50.796;4.994;2023-05-27T07:36:20;13.40;99.90
48666;DHT22;34452;50.796;4.994;2023-05-27T07:38:46;13.50;99.90
48666;DHT22;34452;50.796;4.994;2023-05-27T07:41:13;13.60;99.90
48666;DHT22;34452;50.796;4.994;2023-05-27T07:43:39;13.70;99.90
48666;DHT22;34452;50.796;4.994;2023-05-27T07:46:05;13.80;99.90
48666;DHT22;34452;50.796;4.994;2023-05-27T07:48:31;13.70;99.90
48666;DHT22;34452;50.796;4.994;2023-05-27T07:50:56;13.90;99.90
48666;DHT22;34452;50.796;4.994;2023-05-27T07:53:22;14.00;99.90
48666;DHT22;34452;50.796;4.994;2023-05-27T07:55:48;14.20;99.90
48666;DHT22;34452;50.796;4.994;2023-05-27T07:58:14;14.20;99.90
48666;DHT22;34452;50.796;4.994;2023-05-27T08:00:40;14.40;99.90
48666;DHT22;34452;50.796;4.994;2023-05-27T08:03:05;14.50;99.90
48666;DHT22;34452;50.796;4.994;2023-05-27T08:05:31;14.50;99.90
48666;DHT22;34452;50.796;4.994;2023-05-27T08:07:58;14.60;99.90
48666;DHT22;34452;50.796;4.994;2023-05-27T08:10:24;14.60;99.90
48666;DHT22;34452;50.796;4.994;2023-05-27T08:12:50;14.60;99.90
48666;DHT22;34452;50.796;4.994;2023-05-27T08:15:16;14.60;99.90
48666;DHT22;34452;50.796;4.994;2023-05-27T08:17:42;14.60;99.90
48666;DHT22;34452;50.796;4.994;2023-05-27T08:20:09;14.70;99.90
48666;DHT22;34452;50.796;4.994;2023-05-27T08:22:36;14.80;99.90
48666;DHT22;34452;50.796;4.994;2023-05-27T08:25:02;14.90;99.90
48666;DHT22;34452;50.796;4.994;2023-05-27T08:30:32;15.30;99.90
48666;DHT22;34452;50.796;4.994;2023-05-27T08:32:58;15.30;99.90
48666;DHT22;34452;50.796;4.994;2023-05-27T08:35:24;15.30;99.90
48666;DHT22;34452;50.796;4.994;2023-05-27T08:37:50;15.40;99.90
48666;DHT22;34452;50.796;4.994;2023-05-27T08:40:17;15.50;99.90
48666;DHT22;34452;50.796;4.994;2023-05-27T08:42:43;15.60;99.90
48666;DHT22;34452;50.796;4.994;2023-05-27T08:45:10;15.70;99.90
48666;DHT22;34452;50.796;4.994;2023-05-27T08:47:35;15.80;99.90
48666;DHT22;34452;50.796;4.994;2023-05-27T08:50:03;15.90;99.90
48666;DHT22;34452;50.796;4.994;2023-05-27T08:52:29;15.90;99.90
48666;DHT22;34452;50.796;4.994;2023-05-27T08:54:57;15.90;99.90
48666;DHT22;34452;50.796;4.994;2023-05-27T08:57:28;15.90;99.90
48666;DHT22;34452;50.796;4.994;2023-05-27T08:59:54;16.00;99.90
48666;DHT22;34452;50.796;4.994;2023-05-27T09:02:21;15.90;99.90
48666;DHT22;34452;50.796;4.994;2023-05-27T09:04:47;16.00;99.90
48666;DHT22;34452;50.796;4.994;2023-05-27T09:07:13;16.10;99.90
48666;DHT22;34452;50.796;4.994;2023-05-27T09:09:39;16.20;99.90
48666;DHT22;34452;50.796;4.994;2023-05-27T09:12:06;16.20;99.90
48666;DHT22;34452;50.796;4.994;2023-05-27T09:14:34;16.30;99.90
48666;DHT22;34452;50.796;4.994;2023-05-27T09:17:22;16.40;99.90
48666;DHT22;34452;50.796;4.994;2023-05-27T09:19:51;16.60;99.90
48666;DHT22;34452;50.796;4.994;2023-05-27T09:22:22;16.80;99.90
48666;DHT22;34452;50.796;4.994;2023-05-27T09:24:49;16.80;99.90
48666;DHT22;34452;50.796;4.994;2023-05-27T09:27:15;17.00;99.90
48666;DHT22;34452;50.796;4.994;2023-05-27T09:29:41;17.20;99.90
48666;DHT22;34452;50.796;4.994;2023-05-27T09:32:07;17.40;99.90
48666;DHT22;34452;50.796;4.994;2023-05-27T09:37:16;17.50;99.90
48666;DHT22;34452;50.796;4.994;2023-05-27T09:39:44;17.80;99.90
48666;DHT22;34452;50.796;4.994;2023-05-27T09:42:10;17.80;99.90
48666;DHT22;34452;50.796;4.994;2023-05-27T09:44:36;18.00;99.90
48666;DHT22;34452;50.796;4.994;2023-05-27T09:47:08;18.10;99.90
48666;DHT22;34452;50.796;4.994;2023-05-27T09:49:37;17.90;99.90
48666;DHT22;34452;50.796;4.994;2023-05-27T09:52:05;17.60;99.90
48666;DHT22;34452;50.796;4.994;2023-05-27T09:54:32;17.60;99.90
48666;DHT22;34452;50.796;4.994;2023-05-27T09:56:59;17.50;99.90
48666;DHT22;34452;50.796;4.994;2023-05-27T09:59:25;17.50;99.90
48666;DHT22;34452;50.796;4.994;2023-05-27T10:01:51;17.70;99.90
48666;DHT22;34452;50.796;4.994;2023-05-27T10:04:17;17.70;99.90
48666;DHT22;34452;50.796;4.994;2023-05-27T10:06:44;17.50;99.90
48666;DHT22;34452;50.796;4.994;2023-05-27T10:09:11;17.60;99.90
48666;DHT22;34452;50.796;4.994;2023-05-27T10:11:40;17.60;99.70
48666;DHT22;34452;50.796;4.994;2023-05-27T10:14:06;17.50;99.90
48666;DHT22;34452;50.796;4.994;2023-05-27T10:16:32;17.70;99.90
48666;DHT22;34452;50.796;4.994;2023-05-27T10:19:00;18.00;99.90
48666;DHT22;34452;50.796;4.994;2023-05-27T10:21:28;18.10;99.40
48666;DHT22;34452;50.796;4.994;2023-05-27T10:23:57;18.30;99.90
48666;DHT22;34452;50.796;4.994;2023-05-27T10:26:38;18.40;99.90
48666;DHT22;34452;50.796;4.994;2023-05-27T10:31:31;18.70;96.50
48666;DHT22;34452;50.796;4.994;2023-05-27T10:33:57;18.80;96.90
48666;DHT22;34452;50.796;4.994;2023-05-27T10:36:26;19.00;94.30
48666;DHT22;34452;50.796;4.994;2023-05-27T10:38:56;19.00;95.40
48666;DHT22;34452;50.796;4.994;2023-05-27T10:41:22;19.30;94.50
48666;DHT22;34452;50.796;4.994;2023-05-27T10:44:07;19.40;93.70
48666;DHT22;34452;50.796;4.994;2023-05-27T10:46:50;19.40;92.10
48666;DHT22;34452;50.796;4.994;2023-05-27T10:49:25;19.70;92.00
48666;DHT22;34452;50.796;4.994;2023-05-27T10:51:53;19.70;90.50
48666;DHT22;34452;50.796;4.994;2023-05-27T10:54:24;19.70;85.80
48666;DHT22;34452;50.796;4.994;2023-05-27T10:56:52;19.80;88.10
48666;DHT22;34452;50.796;4.994;2023-05-27T10:59:20;19.90;88.30
48666;DHT22;34452;50.796;4.994;2023-05-27T11:01:52;20.10;87.80
48666;DHT22;34452;50.796;4.994;2023-05-27T11:04:19;20.20;87.90
48666;DHT22;34452;50.796;4.994;2023-05-27T11:06:58;20.30;85.20
48666;DHT22;34452;50.796;4.994;2023-05-27T11:09:25;20.20;80.60
48666;DHT22;34452;50.796;4.994;2023-05-27T11:11:51;20.20;82.70
48666;DHT22;34452;50.796;4.994;2023-05-27T11:14:16;20.40;85.00
48666;DHT22;34452;50.796;4.994;2023-05-27T11:16:47;20.60;81.50
48666;DHT22;34452;50.796;4.994;2023-05-27T11:19:14;20.60;78.10
48666;DHT22;34452;50.796;4.994;2023-05-27T11:21:57;20.70;80.50
48666;DHT22;34452;50.796;4.994;2023-05-27T11:24:22;20.80;84.40
48666;DHT22;34452;50.796;4.994;2023-05-27T11:26:48;21.00;77.40
48666;DHT22;34452;50.796;4.994;2023-05-27T11:29:14;21.10;75.20
48666;DHT22;34452;50.796;4.994;2023-05-27T11:31:41;20.90;73.20
48666;DHT22;34452;50.796;4.994;2023-05-27T11:34:21;20.80;75.10
48666;DHT22;34452;50.796;4.994;2023-05-27T11:36:49;20.80;77.20
48666;DHT22;34452;50.796;4.994;2023-05-27T11:39:15;21.00;73.90
48666;DHT22;34452;50.796;4.994;2023-05-27T11:41:59;21.00;74.30
48666;DHT22;34452;50.796;4.994;2023-05-27T11:44:25;21.20;71.90
48666;DHT22;34452;50.796;4.994;2023-05-27T11:46:58;21.60;72.70
48666;DHT22;34452;50.796;4.994;2023-05-27T11:49:25;21.70;70.80
48666;DHT22;34452;50.796;4.994;2023-05-27T11:51:55;21.90;75.90
48666;DHT22;34452;50.796;4.994;2023-05-27T11:54:24;21.80;72.30
48666;DHT22;34452;50.796;4.994;2023-05-27T11:56:51;21.90;75.70
48666;DHT22;34452;50.796;4.994;2023-05-27T11:59:17;21.90;73.70
48666;DHT22;34452;50.796;4.994;2023-05-27T12:01:44;22.20;69.80
48666;DHT22;34452;50.796;4.994;2023-05-27T12:04:10;22.60;67.40
48666;DHT22;34452;50.796;4.994;2023-05-27T12:06:37;22.90;64.50
48666;DHT22;34452;50.796;4.994;2023-05-27T12:09:05;23.10;63.20
48666;DHT22;34452;50.796;4.994;2023-05-27T12:11:31;23.40;62.60
48666;DHT22;34452;50.796;4.994;2023-05-27T12:13:57;23.50;63.20
48666;DHT22;34452;50.796;4.994;2023-05-27T12:16:23;23.70;61.90
48666;DHT22;34452;50.796;4.994;2023-05-27T12:18:49;23.80;63.10
48666;DHT22;34452;50.796;4.994;2023-05-27T12:21:15;23.80;57.90
48666;DHT22;34452;50.796;4.994;2023-05-27T12:23:41;23.80;58.20
48666;DHT22;34452;50.796;4.994;2023-05-27T12:26:07;23.80;58.70
48666;DHT22;34452;50.796;4.994;2023-05-27T12:28:33;23.60;59.30
48666;DHT22;34452;50.796;4.994;2023-05-27T12:30:59;23.50;59.40
48666;DHT22;34452;50.796;4.994;2023-05-27T12:33:25;23.70;59.70
48666;DHT22;34452;50.796;4.994;2023-05-27T12:35:51;23.80;57.60
48666;DHT22;34452;50.796;4.994;2023-05-27T12:38:17;23.90;58.90
48666;DHT22;34452;50.796;4.994;2023-05-27T12:40:43;23.90;58.30
48666;DHT22;34452;50.796;4.994;2023-05-27T12:43:09;23.80;58.10
48666;DHT22;34452;50.796;4.994;2023-05-27T12:45:34;23.50;56.80
48666;DHT22;34452;50.796;4.994;2023-05-27T12:48:00;23.60;61.60
48666;DHT22;34452;50.796;4.994;2023-05-27T12:50:27;23.90;59.70
48666;DHT22;34452;50.796;4.994;2023-05-27T12:52:53;23.90;59.80
48666;DHT22;34452;50.796;4.994;2023-05-27T12:55:20;24.20;60.40
48666;DHT22;34452;50.796;4.994;2023-05-27T12:57:48;24.40;60.30
48666;DHT22;34452;50.796;4.994;2023-05-27T13:00:15;24.40;59.40
48666;DHT22;34452;50.796;4.994;2023-05-27T13:02:41;24.70;55.90
48666;DHT22;34452;50.796;4.994;2023-05-27T13:05:08;24.90;57.10
48666;DHT22;34452;50.796;4.994;2023-05-27T13:07:34;25.00;55.80
48666;DHT22;34452;50.796;4.994;2023-05-27T13:10:03;24.90;60.00
48666;DHT22;34452;50.796;4.994;2023-05-27T13:12:29;25.00;56.70
48666;DHT22;34452;50.796;4.994;2023-05-27T13:14:57;25.20;56.30
48666;DHT22;34452;50.796;4.994;2023-05-27T13:17:22;25.10;53.60
48666;DHT22;34452;50.796;4.994;2023-05-27T13:19:48;25.00;58.50
48666;DHT22;34452;50.796;4.994;2023-05-27T13:22:14;25.30;55.90
48666;DHT22;34452;50.796;4.994;2023-05-27T13:24:40;25.20;55.70
48666;DHT22;34452;50.796;4.994;2023-05-27T13:27:07;25.50;56.60
48666;DHT22;34452;50.796;4.994;2023-05-27T13:29:34;25.40;54.90
48666;DHT22;34452;50.796;4.994;2023-05-27T13:31:59;25.30;51.70
48666;DHT22;34452;50.796;4.994;2023-05-27T13:34:25;24.80;50.30
48666;DHT22;34452;50.796;4.994;2023-05-27T13:36:53;24.80;54.10
48666;DHT22;34452;50.796;4.994;2023-05-27T13:39:18;25.00;54.00
48666;DHT22;34452;50.796;4.994;2023-05-27T13:41:44;24.80;53.60
48666;DHT22;34452;50.796;4.994;2023-05-27T13:44:10;25.20;56.20
48666;DHT22;34452;50.796;4.994;2023-05-27T13:46:36;25.20;55.20
48666;DHT22;34452;50.796;4.994;2023-05-27T13:49:01;25.40;52.90
48666;DHT22;34452;50.796;4.994;2023-05-27T13:51:29;25.40;50.70
48666;DHT22;34452;50.796;4.994;2023-05-27T13:53:56;25.10;51.90
48666;DHT22;34452;50.796;4.994;2023-05-27T13:56:22;25.20;54.40
48666;DHT22;34452;50.796;4.994;2023-05-27T13:58:49;25.40;53.70
48666;DHT22;34452;50.796;4.994;2023-05-27T14:01:14;25.40;53.40
48666;DHT22;34452;50.796;4.994;2023-05-27T14:03:40;25.30;53.30
48666;DHT22;34452;50.796;4.994;2023-05-27T14:06:06;25.70;55.20
48666;DHT22;34452;50.796;4.994;2023-05-27T14:08:33;25.70;50.80
48666;DHT22;34452;50.796;4.994;2023-05-27T14:10:59;25.70;53.20
48666;DHT22;34452;50.796;4.994;2023-05-27T14:13:24;25.70;52.40
48666;DHT22;34452;50.796;4.994;2023-05-27T14:15:51;25.70;49.30
48666;DHT22;34452;50.796;4.994;2023-05-27T14:18:17;25.40;48.40
48666;DHT22;34452;50.796;4.994;2023-05-27T14:20:43;25.40;51.70
48666;DHT22;34452;50.796;4.994;2023-05-27T14:23:09;25.70;51.70
48666;DHT22;34452;50.796;4.994;2023-05-27T14:25:38;26.00;50.30
48666;DHT22;34452;50.796;4.994;2023-05-27T14:28:03;26.30;51.40
48666;DHT22;34452;50.796;4.994;2023-05-27T14:30:32;26.20;50.50
48666;DHT22;34452;50.796;4.994;2023-05-27T14:33:09;26.40;50.30
48666;DHT22;34452;50.796;4.994;2023-05-27T14:35:36;26.40;51.00
48666;DHT22;34452;50.796;4.994;2023-05-27T14:38:02;26.10;49.60
48666;DHT22;34452;50.796;4.994;2023-05-27T14:40:28;26.00;48.90
48666;DHT22;34452;50.796;4.994;2023-05-27T14:42:54;25.70;47.70
48666;DHT22;34452;50.796;4.994;2023-05-27T14:45:20;25.70;51.70
48666;DHT22;34452;50.796;4.994;2023-05-27T14:47:49;26.00;52.30
48666;DHT22;34452;50.796;4.994;2023-05-27T14:50:17;26.50;52.20
48666;DHT22;34452;50.796;4.994;2023-05-27T14:52:43;26.50;49.10
48666;DHT22;34452;50.796;4.994;2023-05-27T14:55:09;26.10;47.90
48666;DHT22;34452;50.796;4.994;2023-05-27T14:57:35;25.90;48.20
48666;DHT22;34452;50.796;4.994;2023-05-27T15:00:02;26.00;48.60
48666;DHT22;34452;50.796;4.994;2023-05-27T15:02:31;26.00;46.50
48666;DHT22;34452;50.796;4.994;2023-05-27T15:04:57;26.20;49.20
48666;DHT22;34452;50.796;4.994;2023-05-27T15:07:23;26.70;49.50
48666;DHT22;34452;50.796;4.994;2023-05-27T15:09:48;27.20;45.00
48666;DHT22;34452;50.796;4.994;2023-05-27T15:12:14;27.50;45.50
48666;DHT22;34452;50.796;4.994;2023-05-27T15:14:40;27.20;42.20
48666;DHT22;34452;50.796;4.994;2023-05-27T15:17:06;27.40;46.90
48666;DHT22;34452;50.796;4.994;2023-05-27T15:19:36;27.90;45.10
48666;DHT22;34452;50.796;4.994;2023-05-27T15:22:02;28.00;45.30
48666;DHT22;34452;50.796;4.994;2023-05-27T15:24:28;28.60;44.40
48666;DHT22;34452;50.796;4.994;2023-05-27T15:26:53;28.70;41.60
48666;DHT22;34452;50.796;4.994;2023-05-27T15:29:19;28.90;42.60
48666;DHT22;34452;50.796;4.994;2023-05-27T15:31:47;29.20;43.50
48666;DHT22;34452;50.796;4.994;2023-05-27T15:34:12;29.10;40.90
48666;DHT22;34452;50.796;4.994;2023-05-27T15:36:38;29.00;39.20
48666;DHT22;34452;50.796;4.994;2023-05-27T15:39:04;29.10;39.00
48666;DHT22;34452;50.796;4.994;2023-05-27T15:41:31;28.90;41.00
48666;DHT22;34452;50.796;4.994;2023-05-27T15:43:57;29.10;42.80
48666;DHT22;34452;50.796;4.994;2023-05-27T15:46:23;29.20;39.10